Time;durP1;ratioP1;P1;durP2;ratioP2;P2;SDS_P1;SDS_P2;PMS_P1;PMS_P2;Temp;Humidity;BMP_temperature;BMP_pressure;BME280_temperature;BME280_humidity;BME280_pressure;Samples;Min_cycle;Max_cycle;Signal;HPM_P1;HPM_P2
2023/05/14 00:00:46;;;;;;;2.25;1.27;;;15.90;96.70;;;;;;4966528;28;20077;-73
2023/05/14 00:03:14;;;;;;;1.85;1.10;;;16.10;96.70;;;;;;4950291;28;20119;-73
2023/05/14 00:05:44;;;;;;;4.03;1.30;;;16.10;96.70;;;;;;4947580;28;20145;-73
2023/05/14 00:08:12;;;;;;;2.90;1.33;;;16.20;96.70;;;;;;4963714;28;20448;-73
2023/05/14 00:10:40;;;;;;;1.65;1.00;;;16.20;96.70;;;;;;4946439;28;20047;-74
2023/05/14 00:21:35;;;;;;;3.30;1.35;;;15.80;96.70;;;;;;4964162;28;20081;-73
2023/05/14 00:24:11;;;;;;;;;;;15.70;96.70;;;;;;4932527;28;20071;-73
2023/05/14 00:26:43;;;;;;;1.67;1.30;;;15.70;96.70;;;;;;4964312;28;20383;-73
2023/05/14 00:29:12;;;;;;;3.25;1.13;;;15.70;96.70;;;;;;4963616;28;20042;-73
2023/05/14 00:31:46;;;;;;;2.55;1.27;;;15.80;96.70;;;;;;4963697;28;20179;-73
2023/05/14 00:34:16;;;;;;;3.38;1.20;;;15.80;96.70;;;;;;4961882;28;20061;-73
2023/05/14 00:36:51;;;;;;;3.83;1.30;;;15.80;96.70;;;;;;4962563;28;20327;-73
2023/05/14 00:39:21;;;;;;;2.20;1.02;;;15.80;96.70;;;;;;4931405;28;20046;-73
2023/05/14 00:45:19;;;;;;;2.10;0.90;;;15.90;96.70;;;;;;4946649;28;20583;-73
2023/05/14 00:47:50;;;;;;;3.05;1.10;;;16.00;96.70;;;;;;4963305;28;20038;-73
2023/05/14 00:50:21;;;;;;;3.08;1.00;;;16.00;96.70;;;;;;4962850;28;20069;-73
2023/05/14 00:52:55;;;;;;;7.47;1.20;;;16.00;96.70;;;;;;4946103;28;20046;-73
2023/05/14 00:55:26;;;;;;;3.25;1.00;;;15.90;96.70;;;;;;4946791;28;20061;-73
2023/05/14 00:57:58;;;;;;;1.40;0.88;;;16.00;96.70;;;;;;4962959;28;20666;-73
2023/05/14 01:09:37;;;;;;;3.28;0.90;;;15.90;96.70;;;;;;4961187;28;20456;-73
2023/05/14 01:12:15;;;;;;;3.08;0.98;;;15.80;96.70;;;;;;4962077;28;20611;-73
2023/05/14 01:14:53;;;;;;;3.50;1.15;;;15.80;96.70;;;;;;4966931;28;20054;-73
2023/05/14 01:17:24;;;;;;;2.05;0.90;;;15.80;96.70;;;;;;4947952;28;20050;-73
2023/05/14 01:19:54;;;;;;;3.95;1.05;;;15.70;96.70;;;;;;4950062;28;20448;-73
2023/05/14 01:22:23;;;;;;;2.70;0.85;;;15.70;96.70;;;;;;4945082;28;20051;-73
2023/05/14 01:24:51;;;;;;;2.92;1.10;;;15.70;96.70;;;;;;4941945;28;20042;-73
2023/05/14 01:27:28;;;;;;;4.43;0.98;;;15.80;96.70;;;;;;4940751;28;20546;-73
2023/05/14 01:30:02;;;;;;;1.65;1.08;;;15.90;96.70;;;;;;4947454;28;20413;-73
2023/05/14 01:32:32;;;;;;;3.67;1.10;;;15.90;96.70;;;;;;4944314;28;20066;-73
2023/05/14 01:35:01;;;;;;;3.72;1.08;;;16.00;96.70;;;;;;4943785;28;20050;-73
2023/05/14 01:37:31;;;;;;;2.67;1.33;;;16.00;96.70;;;;;;4942579;28;20130;-73
2023/05/14 01:52:55;;;;;;;4.00;1.05;;;16.00;96.70;;;;;;4939140;28;20126;-73
2023/05/14 01:55:27;;;;;;;3.53;1.15;;;16.00;96.70;;;;;;4945534;28;20489;-74
2023/05/14 01:57:57;;;;;;;3.35;1.20;;;16.00;96.70;;;;;;4926511;28;20110;-73
2023/05/14 02:00:26;;;;;;;1.20;0.82;;;16.00;96.70;;;;;;4930192;29;20035;-74
2023/05/14 02:02:58;;;;;;;3.15;1.25;;;16.00;96.70;;;;;;4947250;28;20082;-73
2023/05/14 02:05:28;;;;;;;1.45;0.75;;;15.90;96.70;;;;;;4946181;28;20098;-74
2023/05/14 02:07:59;;;;;;;4.13;1.20;;;15.90;96.70;;;;;;4952203;28;20102;-73
2023/05/14 02:10:28;;;;;;;1.45;1.00;;;15.80;96.70;;;;;;4930712;29;20082;-74
2023/05/14 02:12:58;;;;;;;3.05;1.17;;;15.60;96.70;;;;;;4948866;28;20624;-73
2023/05/14 02:15:28;;;;;;;4.75;1.20;;;15.50;96.70;;;;;;4947201;28;20527;-72
2023/05/14 02:17:58;;;;;;;1.92;0.80;;;15.50;96.70;;;;;;4950894;28;20043;-73
2023/05/14 02:28:26;;;;;;;3.20;0.80;;;15.70;96.70;;;;;;4960892;28;20050;-74
2023/05/14 02:30:59;;;;;;;2.90;0.85;;;15.60;96.70;;;;;;4965957;28;20137;-74
2023/05/14 02:33:29;;;;;;;3.25;0.95;;;15.60;96.70;;;;;;4947745;28;20046;-73
2023/05/14 02:35:59;;;;;;;1.60;0.90;;;15.70;96.70;;;;;;4948717;28;20039;-73
2023/05/14 02:38:31;;;;;;;1.48;1.00;;;15.60;96.70;;;;;;4917984;28;20134;-72
2023/05/14 02:41:02;;;;;;;3.75;1.00;;;15.70;96.70;;;;;;4966704;28;20050;-73
2023/05/14 02:43:34;;;;;;;3.38;0.95;;;15.70;96.70;;;;;;4961752;28;20388;-73
2023/05/14 02:46:04;;;;;;;2.63;1.00;;;15.70;96.70;;;;;;4966059;28;20038;-72
2023/05/14 02:48:33;;;;;;;3.25;1.10;;;15.80;96.70;;;;;;4935803;28;20133;-73
2023/05/14 02:51:02;;;;;;;3.20;1.00;;;15.70;96.70;;;;;;4964780;28;20046;-74
2023/05/14 02:53:31;;;;;;;2.33;0.80;;;15.70;96.70;;;;;;4939198;28;20057;-72
2023/05/14 02:56:02;;;;;;;1.77;0.90;;;15.60;96.70;;;;;;4965192;28;20065;-72
2023/05/14 02:58:33;;;;;;;2.83;1.20;;;15.60;96.70;;;;;;4967391;28;20134;-72
2023/05/14 03:01:02;;;;;;;1.05;0.77;;;15.60;96.70;;;;;;4947524;28;20047;-73
2023/05/14 03:03:32;;;;;;;4.28;1.02;;;15.50;96.70;;;;;;4947325;28;20455;-72
2023/05/14 03:06:03;;;;;;;4.18;1.63;;;15.50;96.70;;;;;;4936996;28;20476;-72
2023/05/14 03:08:32;;;;;;;1.80;1.00;;;15.50;96.70;;;;;;4947688;28;20037;-73
2023/05/14 03:11:02;;;;;;;1.73;0.60;;;15.50;96.70;;;;;;4963374;28;20054;-73
2023/05/14 03:13:33;;;;;;;1.75;0.73;;;15.60;96.70;;;;;;4965511;28;20150;-73
2023/05/14 03:16:03;;;;;;;2.05;0.82;;;15.70;96.70;;;;;;4965019;28;20035;-73
2023/05/14 03:18:35;;;;;;;1.45;0.90;;;15.70;96.70;;;;;;4947016;28;20548;-73
2023/05/14 03:21:07;;;;;;;1.40;0.80;;;15.80;96.70;;;;;;4965089;28;20054;-73
2023/05/14 03:23:38;;;;;;;2.95;1.45;;;15.80;96.70;;;;;;4947555;28;20126;-73
2023/05/14 03:26:07;;;;;;;1.80;0.85;;;15.80;96.70;;;;;;4964865;28;20043;-72
2023/05/14 03:28:39;;;;;;;2.38;0.98;;;15.80;96.70;;;;;;4965383;28;20038;-73
2023/05/14 03:31:11;;;;;;;1.23;0.80;;;15.80;96.70;;;;;;4965071;28;20122;-73
2023/05/14 03:33:40;;;;;;;2.45;1.15;;;15.70;96.70;;;;;;4932288;28;20129;-73
2023/05/14 03:36:10;;;;;;;1.23;0.88;;;15.60;96.70;;;;;;4966472;28;20061;-73
2023/05/14 03:38:42;;;;;;;2.20;0.95;;;15.50;96.70;;;;;;4963942;28;20070;-73
2023/05/14 03:41:11;;;;;;;2.17;0.60;;;15.30;96.70;;;;;;4950292;28;20054;-73
2023/05/14 03:43:43;;;;;;;1.95;0.82;;;15.30;96.70;;;;;;4968876;28;20121;-73
2023/05/14 03:46:12;;;;;;;4.80;1.02;;;15.50;96.70;;;;;;4949407;28;20576;-73
2023/05/14 03:48:42;;;;;;;1.95;0.90;;;15.60;96.70;;;;;;4935947;28;20058;-72
2023/05/14 03:51:13;;;;;;;1.08;0.80;;;15.70;96.70;;;;;;4965002;28;20053;-73
2023/05/14 03:53:42;;;;;;;1.60;0.80;;;15.70;96.70;;;;;;4934804;28;20053;-73
2023/05/14 03:56:13;;;;;;;2.60;0.90;;;15.70;96.70;;;;;;4949597;28;20655;-72
2023/05/14 03:58:48;;;;;;;2.67;0.90;;;15.60;96.70;;;;;;4962570;28;20098;-73
2023/05/14 04:01:23;;;;;;;3.35;0.90;;;15.70;96.70;;;;;;4946734;28;20039;-72
2023/05/14 04:03:52;;;;;;;2.72;0.80;;;15.70;96.70;;;;;;4947162;28;20112;-72
2023/05/14 04:06:22;;;;;;;3.50;1.00;;;15.70;96.70;;;;;;4956877;28;20142;-72
2023/05/14 04:08:51;;;;;;;4.07;1.17;;;15.70;96.70;;;;;;4964775;28;21119;-73
2023/05/14 04:11:20;;;;;;;2.83;0.90;;;15.70;96.70;;;;;;4938873;28;20046;-72
2023/05/14 04:13:51;;;;;;;5.57;0.90;;;15.70;96.70;;;;;;4946726;28;20141;-73
2023/05/14 04:16:21;;;;;;;2.17;0.55;;;15.60;96.70;;;;;;4949133;28;20047;-73
2023/05/14 04:18:50;;;;;;;1.88;0.80;;;15.50;96.70;;;;;;4964925;28;20098;-72
2023/05/14 04:21:19;;;;;;;4.13;0.80;;;15.50;96.70;;;;;;4946176;28;20828;-73
2023/05/14 04:31:46;;;;;;;;;;;15.70;96.70;;;;;;4940961;29;20043;-73
2023/05/14 04:34:16;;;;;;;2.03;0.80;;;15.60;96.70;;;;;;4944374;29;19926;-72
2023/05/14 04:36:45;;;;;;;2.58;0.85;;;15.50;96.70;;;;;;4942555;29;20540;-73
2023/05/14 05:00:32;;;;;;;1.73;0.63;;;15.60;96.70;;;;;;4941480;29;20437;-73
2023/05/14 05:03:00;;;;;;;3.22;0.40;;;15.70;96.70;;;;;;4939654;29;20046;-73
2023/05/14 05:05:28;;;;;;;2.10;0.70;;;15.70;96.70;;;;;;4941352;28;20086;-73
2023/05/14 05:07:57;;;;;;;2.33;0.50;;;15.80;96.70;;;;;;4943188;29;20133;-73
2023/05/14 05:10:25;;;;;;;2.35;0.68;;;15.90;96.70;;;;;;4940784;29;20043;-73
2023/05/14 05:12:53;;;;;;;1.17;0.68;;;15.90;96.70;;;;;;4934943;29;20051;-74
2023/05/14 05:15:22;;;;;;;1.55;0.60;;;16.00;96.70;;;;;;4943744;28;20042;-73
2023/05/14 05:17:54;;;;;;;1.23;0.60;;;16.10;96.70;;;;;;4941768;28;20055;-74
2023/05/14 05:20:23;;;;;;;0.80;0.60;;;16.10;96.70;;;;;;4940653;29;20043;-75
2023/05/14 05:22:52;;;;;;;2.35;0.52;;;16.20;96.70;;;;;;4923468;29;20051;-73
2023/05/14 05:25:20;;;;;;;1.55;0.32;;;16.10;96.70;;;;;;4956547;28;20130;-74
2023/05/14 05:27:49;;;;;;;0.98;0.55;;;16.10;96.70;;;;;;4937854;29;20504;-73
2023/05/14 05:30:17;;;;;;;0.65;0.40;;;16.10;96.70;;;;;;4952220;28;20182;-74
2023/05/14 05:32:45;;;;;;;2.70;0.40;;;16.10;96.70;;;;;;4962186;28;20053;-73
2023/05/14 05:35:15;;;;;;;0.55;0.30;;;16.30;96.70;;;;;;4964285;28;20119;-73
2023/05/14 05:37:44;;;;;;;2.38;0.70;;;16.20;96.70;;;;;;4947218;28;20043;-73
2023/05/14 05:40:13;;;;;;;1.98;0.82;;;16.00;96.70;;;;;;4961476;28;20066;-73
2023/05/14 05:42:41;;;;;;;1.45;0.40;;;15.90;96.70;;;;;;4965479;28;20042;-73
2023/05/14 05:45:10;;;;;;;1.65;0.40;;;15.80;96.70;;;;;;4935999;28;20050;-73
2023/05/14 05:47:38;;;;;;;3.55;0.70;;;15.70;96.70;;;;;;4948744;28;20054;-73
2023/05/14 05:50:08;;;;;;;0.88;0.40;;;15.70;96.70;;;;;;4965699;28;20125;-74
2023/05/14 05:52:38;;;;;;;1.58;0.60;;;15.80;96.70;;;;;;4965367;28;20043;-72
2023/05/14 05:55:07;;;;;;;1.10;0.57;;;15.70;96.70;;;;;;4949835;28;20057;-73
2023/05/14 05:57:36;;;;;;;2.50;0.52;;;15.70;96.70;;;;;;4964638;28;20421;-73
2023/05/14 06:00:14;;;;;;;1.25;0.75;;;15.70;96.70;;;;;;4965286;28;20050;-73
2023/05/14 06:02:42;;;;;;;2.70;0.70;;;15.80;96.70;;;;;;4965126;28;20046;-73
2023/05/14 06:05:11;;;;;;;0.65;0.47;;;15.70;96.70;;;;;;4957779;28;20039;-73
2023/05/14 06:07:42;;;;;;;1.20;0.45;;;15.70;96.70;;;;;;4946841;28;20051;-73
2023/05/14 06:10:10;;;;;;;1.73;0.90;;;15.60;96.70;;;;;;4973599;28;20692;-73
2023/05/14 06:12:39;;;;;;;2.53;0.60;;;15.60;96.70;;;;;;4973961;28;20038;-75
2023/05/14 06:15:08;;;;;;;1.88;0.70;;;15.70;96.70;;;;;;4974396;28;20664;-73
2023/05/14 06:17:36;;;;;;;1.90;0.93;;;15.90;96.70;;;;;;4966027;28;20198;-74
2023/05/14 06:20:06;;;;;;;1.92;0.80;;;16.00;96.70;;;;;;4965195;28;20571;-74
2023/05/14 06:22:35;;;;;;;1.20;0.80;;;16.00;96.70;;;;;;4960339;28;20141;-73
2023/05/14 06:25:05;;;;;;;1.85;0.63;;;15.90;96.70;;;;;;4966041;28;20046;-75
2023/05/14 06:27:34;;;;;;;3.60;0.68;;;15.80;96.70;;;;;;4972783;28;20050;-74
2023/05/14 06:30:03;;;;;;;2.05;0.68;;;15.90;96.70;;;;;;4949684;28;20065;-73
2023/05/14 06:32:31;;;;;;;0.60;0.50;;;15.90;96.70;;;;;;4948913;28;20066;-73
2023/05/14 06:34:59;;;;;;;0.88;0.63;;;16.10;96.70;;;;;;4949118;28;20129;-72
2023/05/14 06:37:28;;;;;;;2.83;0.73;;;16.10;96.70;;;;;;4964853;28;20049;-74
2023/05/14 06:39:56;;;;;;;4.00;1.33;;;16.30;96.70;;;;;;4947044;28;20062;-74
2023/05/14 06:42:26;;;;;;;2.42;0.93;;;16.30;96.70;;;;;;4952410;28;20039;-75
2023/05/14 06:44:55;;;;;;;3.30;0.95;;;16.20;96.70;;;;;;4970173;28;20497;-74
2023/05/14 06:47:23;;;;;;;0.98;0.60;;;16.10;96.70;;;;;;4944787;28;20397;-73
2023/05/14 06:49:52;;;;;;;3.10;0.80;;;16.20;96.70;;;;;;4946949;28;20086;-74
2023/05/14 06:52:20;;;;;;;1.10;0.77;;;16.10;96.70;;;;;;4963960;28;20035;-75
2023/05/14 06:54:49;;;;;;;3.05;1.00;;;16.10;96.70;;;;;;4954847;28;20137;-74
2023/05/14 06:57:17;;;;;;;1.88;0.90;;;16.00;96.70;;;;;;4969328;28;20054;-74
2023/05/14 06:59:47;;;;;;;2.70;0.70;;;15.90;96.70;;;;;;4953454;28;20050;-74
2023/05/14 07:02:15;;;;;;;1.52;0.60;;;15.90;96.70;;;;;;4940675;28;20054;-74
2023/05/14 07:04:44;;;;;;;2.95;1.10;;;16.10;96.70;;;;;;4949936;28;20057;-74
2023/05/14 07:07:14;;;;;;;1.05;0.70;;;16.20;96.70;;;;;;4950010;28;20058;-74
2023/05/14 07:09:42;;;;;;;2.75;1.10;;;16.30;96.70;;;;;;4972014;28;20050;-75
2023/05/14 07:12:11;;;;;;;2.47;1.10;;;16.40;96.70;;;;;;4933848;28;20047;-75
2023/05/14 07:14:39;;;;;;;2.10;1.00;;;16.50;96.70;;;;;;4963692;28;20053;-75
2023/05/14 07:17:10;;;;;;;2.33;0.70;;;16.50;96.70;;;;;;4967228;28;20093;-74
2023/05/14 07:19:38;;;;;;;1.25;0.95;;;16.40;96.70;;;;;;4940517;28;20572;-74
2023/05/14 07:22:06;;;;;;;2.33;0.90;;;16.50;96.70;;;;;;4964434;28;20698;-74
2023/05/14 07:24:35;;;;;;;1.25;0.80;;;16.50;96.70;;;;;;4934273;28;20058;-73
2023/05/14 07:27:03;;;;;;;3.08;1.02;;;16.60;96.70;;;;;;4947421;28;20043;-74
2023/05/14 07:29:33;;;;;;;1.75;0.73;;;16.60;96.70;;;;;;4964537;28;20090;-74
2023/05/14 07:32:02;;;;;;;2.55;0.90;;;16.60;96.70;;;;;;4968448;28;20101;-75
2023/05/14 07:34:32;;;;;;;1.92;0.70;;;16.60;96.70;;;;;;4935193;28;20509;-72
2023/05/14 07:37:01;;;;;;;2.95;0.70;;;16.60;96.70;;;;;;4963647;28;20404;-73
2023/05/14 07:39:29;;;;;;;1.23;0.70;;;16.50;96.70;;;;;;4974665;28;20035;-74
2023/05/14 07:41:59;;;;;;;1.65;0.75;;;16.60;96.70;;;;;;4946511;28;20054;-73
2023/05/14 07:44:27;;;;;;;1.02;0.70;;;16.60;96.70;;;;;;4963395;28;20065;-74
2023/05/14 07:46:55;;;;;;;3.47;0.98;;;16.70;96.70;;;;;;4972354;28;20049;-73
2023/05/14 07:49:24;;;;;;;1.30;0.77;;;16.80;96.70;;;;;;4954484;28;20062;-73
2023/05/14 07:51:54;;;;;;;3.15;0.95;;;16.70;96.70;;;;;;4945419;28;20108;-74
2023/05/14 07:54:22;;;;;;;0.98;0.65;;;16.80;96.70;;;;;;4974218;28;20054;-73
2023/05/14 07:56:50;;;;;;;1.45;0.80;;;16.80;96.70;;;;;;4948738;28;20389;-73
2023/05/14 07:59:19;;;;;;;2.17;1.00;;;16.80;96.70;;;;;;4978690;28;20098;-74
2023/05/14 08:01:47;;;;;;;1.20;0.85;;;16.70;96.70;;;;;;4963050;28;20464;-73
2023/05/14 08:04:16;;;;;;;4.53;0.90;;;16.80;96.70;;;;;;4947327;28;20405;-73
2023/05/14 08:06:45;;;;;;;2.55;1.17;;;16.80;96.70;;;;;;4944167;28;20042;-74
2023/05/14 08:09:15;;;;;;;3.55;0.80;;;16.80;96.70;;;;;;4963211;28;20813;-75
2023/05/14 08:11:43;;;;;;;1.77;0.80;;;16.80;96.70;;;;;;4947319;28;20054;-73
2023/05/14 08:14:12;;;;;;;1.90;0.80;;;16.90;96.70;;;;;;4967963;28;20089;-74
2023/05/14 08:16:40;;;;;;;2.45;0.85;;;16.80;96.70;;;;;;4960984;28;20043;-74
2023/05/14 08:19:09;;;;;;;2.15;0.65;;;16.80;96.70;;;;;;4971062;28;20076;-76
2023/05/14 08:21:37;;;;;;;1.73;0.70;;;16.80;96.70;;;;;;4972204;28;20047;-75
2023/05/14 08:24:06;;;;;;;1.52;0.90;;;17.00;96.70;;;;;;4955102;28;20042;-75
2023/05/14 08:26:37;;;;;;;1.77;0.95;;;17.10;96.70;;;;;;4963954;28;20081;-74
2023/05/14 08:29:06;;;;;;;1.65;1.00;;;17.30;96.70;;;;;;4972929;28;20075;-75
2023/05/14 08:31:41;;;;;;;1.30;0.70;;;17.30;96.70;;;;;;4971152;28;20054;-75
2023/05/14 08:34:11;;;;;;;2.88;1.50;;;17.40;96.70;;;;;;4955222;28;20059;-75
2023/05/14 08:36:39;;;;;;;1.77;1.00;;;17.50;96.70;;;;;;4965745;28;20045;-74
2023/05/14 08:39:08;;;;;;;3.95;2.60;;;17.70;96.70;;;;;;4953929;28;20137;-74
2023/05/14 08:41:39;;;;;;;2.47;1.20;;;17.90;96.70;;;;;;4951641;28;20495;-74
2023/05/14 08:44:11;;;;;;;2.58;1.30;;;18.00;96.70;;;;;;4931405;28;20217;-73
2023/05/14 08:46:40;;;;;;;2.55;1.30;;;17.90;96.70;;;;;;4955206;28;20039;-73
2023/05/14 08:49:20;;;;;;;2.80;1.02;;;17.80;96.70;;;;;;4966930;28;20742;-74
2023/05/14 08:51:49;;;;;;;2.08;0.90;;;17.70;96.70;;;;;;4963202;28;20097;-74
2023/05/14 08:54:18;;;;;;;1.65;0.88;;;17.60;96.70;;;;;;4968002;28;20095;-74
2023/05/14 08:56:50;;;;;;;2.42;1.00;;;17.50;96.70;;;;;;4962703;28;20092;-76
2023/05/14 08:59:19;;;;;;;1.33;0.77;;;17.50;96.70;;;;;;4956686;28;20050;-74
2023/05/14 09:01:50;;;;;;;1.00;0.80;;;17.40;96.70;;;;;;4931076;28;20081;-74
2023/05/14 09:04:21;;;;;;;1.83;0.73;;;17.40;96.70;;;;;;4946738;28;20138;-75
2023/05/14 09:06:51;;;;;;;4.65;0.80;;;17.40;96.70;;;;;;4979834;28;20053;-75
2023/05/14 09:09:25;;;;;;;1.10;0.70;;;17.30;96.70;;;;;;4957248;28;20105;-74
2023/05/14 09:11:55;;;;;;;1.50;0.75;;;17.10;96.70;;;;;;4967669;28;20129;-75
2023/05/14 09:14:25;;;;;;;0.63;0.43;;;17.00;96.70;;;;;;4977549;28;20046;-75
2023/05/14 09:16:54;;;;;;;1.75;0.65;;;17.00;96.70;;;;;;4967651;28;20081;-75
2023/05/14 09:19:23;;;;;;;0.93;0.57;;;16.90;96.70;;;;;;4952177;28;20059;-73
2023/05/14 09:21:51;;;;;;;1.85;0.90;;;16.90;96.70;;;;;;4965552;28;20092;-74
2023/05/14 09:24:21;;;;;;;3.25;0.70;;;16.80;96.70;;;;;;4975851;28;20047;-74
2023/05/14 09:26:51;;;;;;;1.52;0.75;;;16.70;96.70;;;;;;4952262;28;20046;-74
2023/05/14 09:29:22;;;;;;;1.67;0.73;;;16.70;96.70;;;;;;4956145;28;20904;-74
2023/05/14 09:31:52;;;;;;;1.10;0.80;;;16.70;96.70;;;;;;4975180;28;20777;-74
2023/05/14 09:34:24;;;;;;;3.13;0.82;;;16.80;96.70;;;;;;4958273;28;20212;-74
2023/05/14 09:36:56;;;;;;;4.43;0.90;;;16.70;96.70;;;;;;4982500;28;20050;-75
2023/05/14 09:39:26;;;;;;;1.45;0.90;;;16.70;96.70;;;;;;4968139;28;20126;-74
2023/05/14 09:41:55;;;;;;;4.07;0.90;;;16.70;96.70;;;;;;4973310;28;20069;-74
2023/05/14 09:44:25;;;;;;;2.05;0.80;;;16.80;96.70;;;;;;4966127;28;20050;-74
2023/05/14 09:46:54;;;;;;;2.58;1.10;;;16.70;96.70;;;;;;4958409;28;20049;-75
2023/05/14 09:49:23;;;;;;;2.70;1.40;;;16.50;96.70;;;;;;4952364;28;20047;-75
2023/05/14 09:51:51;;;;;;;4.07;1.33;;;16.40;96.70;;;;;;4937495;28;20061;-74
2023/05/14 09:54:20;;;;;;;2.08;1.10;;;16.30;96.70;;;;;;4955477;28;20550;-75
2023/05/14 09:56:48;;;;;;;2.25;0.93;;;16.30;96.70;;;;;;4976993;28;20145;-75
2023/05/14 09:59:17;;;;;;;1.45;1.00;;;16.30;96.70;;;;;;4982815;28;20527;-74
2023/05/14 10:01:49;;;;;;;3.35;1.10;;;16.30;96.70;;;;;;4977134;28;20074;-75
2023/05/14 10:04:19;;;;;;;2.20;0.85;;;16.40;96.70;;;;;;4973216;28;20142;-75
2023/05/14 10:06:52;;;;;;;1.75;0.98;;;16.40;96.70;;;;;;4971400;28;20913;-75
2023/05/14 10:09:25;;;;;;;2.83;1.75;;;16.30;96.70;;;;;;4968253;28;20134;-74
2023/05/14 10:11:58;;;;;;;3.75;1.90;;;16.30;96.70;;;;;;4942287;28;20050;-75
2023/05/14 10:14:31;;;;;;;1.60;1.00;;;16.40;96.70;;;;;;4973041;28;20054;-74
2023/05/14 10:17:05;;;;;;;1.80;0.90;;;16.50;96.70;;;;;;4948939;28;20050;-76
2023/05/14 10:19:34;;;;;;;2.50;0.82;;;16.50;96.70;;;;;;4955677;28;20128;-74
2023/05/14 10:22:06;;;;;;;2.78;1.02;;;16.50;96.70;;;;;;4942094;28;20159;-74
2023/05/14 10:24:37;;;;;;;2.15;1.38;;;16.70;96.70;;;;;;4966774;28;20043;-76
2023/05/14 10:27:06;;;;;;;9.27;4.32;;;16.90;96.70;;;;;;4979426;28;20130;-75
2023/05/14 10:29:36;;;;;;;3.28;1.48;;;17.00;96.70;;;;;;4975833;28;20055;-74
2023/05/14 10:32:08;;;;;;;2.28;1.38;;;17.10;96.70;;;;;;4982204;28;20081;-76
2023/05/14 10:34:39;;;;;;;2.83;1.05;;;17.10;96.70;;;;;;4965727;28;20050;-74
2023/05/14 10:37:10;;;;;;;1.00;0.60;;;17.10;96.70;;;;;;4962047;28;20133;-74
2023/05/14 10:39:46;;;;;;;1.17;0.63;;;17.10;96.70;;;;;;4968704;28;20413;-74
2023/05/14 10:42:16;;;;;;;;;;;17.20;96.70;;;;;;4971253;28;20042;-74
2023/05/14 10:44:49;;;;;;;0.73;0.60;;;17.40;96.70;;;;;;4973575;28;19980;-74
2023/05/14 10:47:20;;;;;;;2.75;0.77;;;17.70;96.70;;;;;;4975967;28;20514;-74
2023/05/14 10:49:52;;;;;;;1.08;0.50;;;17.90;96.70;;;;;;4952697;28;20535;-74
2023/05/14 10:52:21;;;;;;;1.67;0.70;;;18.20;96.70;;;;;;4948453;28;20081;-75
2023/05/14 10:54:51;;;;;;;1.30;0.50;;;18.30;96.70;;;;;;4970319;28;20515;-74
2023/05/14 10:57:21;;;;;;;1.70;0.63;;;18.50;96.70;;;;;;4975035;28;20058;-74
2023/05/14 10:59:54;;;;;;;1.95;0.75;;;18.60;96.70;;;;;;4979828;28;20054;-75
2023/05/14 11:02:26;;;;;;;1.10;0.52;;;18.70;96.70;;;;;;4948689;28;20061;-74
2023/05/14 11:04:57;;;;;;;2.83;0.80;;;18.90;96.70;;;;;;4963825;28;20058;-74
2023/05/14 11:07:31;;;;;;;3.22;0.68;;;19.30;96.70;;;;;;4948027;28;20556;-74
2023/05/14 11:10:02;;;;;;;2.08;0.57;;;19.50;96.70;;;;;;4972828;28;20046;-74
2023/05/14 11:12:31;;;;;;;0.93;0.52;;;19.60;96.70;;;;;;4957953;28;20054;-75
2023/05/14 11:15:02;;;;;;;1.75;0.65;;;19.40;96.70;;;;;;4958485;28;20186;-75
2023/05/14 11:17:35;;;;;;;2.28;1.20;;;19.30;96.70;;;;;;4964683;28;20057;-75
2023/05/14 11:20:05;;;;;;;1.35;0.65;;;19.60;96.70;;;;;;4955099;28;20047;-75
2023/05/14 11:22:35;;;;;;;1.95;0.52;;;19.80;96.70;;;;;;4936779;28;20054;-75
2023/05/14 11:25:05;;;;;;;2.65;0.40;;;20.10;96.70;;;;;;4981440;28;20058;-74
2023/05/14 11:27:35;;;;;;;0.60;0.30;;;20.30;96.70;;;;;;4966791;28;20055;-75
2023/05/14 11:30:11;;;;;;;0.73;0.40;;;20.30;96.70;;;;;;4945206;28;20825;-74
2023/05/14 11:32:42;;;;;;;0.88;0.30;;;20.40;96.70;;;;;;4946810;28;20050;-74
2023/05/14 11:35:11;;;;;;;2.05;0.77;;;20.80;96.70;;;;;;4957754;28;20062;-75
2023/05/14 11:37:40;;;;;;;2.65;0.50;;;21.20;96.70;;;;;;4959858;28;20551;-74
2023/05/14 11:40:15;;;;;;;1.48;0.40;;;21.20;96.70;;;;;;4952178;28;20057;-74
2023/05/14 11:42:44;;;;;;;1.02;0.52;;;21.30;96.70;;;;;;4945731;28;20046;-75
2023/05/14 11:45:23;;;;;;;1.88;0.65;;;21.80;96.70;;;;;;4949706;28;20114;-74
2023/05/14 11:47:53;;;;;;;0.80;0.43;;;22.20;96.70;;;;;;4944927;28;20046;-75
2023/05/14 11:50:22;;;;;;;1.33;0.40;;;22.60;96.70;;;;;;4951935;28;20125;-75
2023/05/14 11:52:56;;;;;;;0.98;0.40;;;22.20;96.70;;;;;;4955673;28;20058;-74
2023/05/14 11:55:25;;;;;;;1.17;0.57;;;21.60;96.70;;;;;;4962934;28;20069;-74
2023/05/14 11:57:54;;;;;;;0.55;0.32;;;21.30;96.70;;;;;;4963269;28;20043;-73
2023/05/14 12:00:23;;;;;;;1.02;0.40;;;21.10;96.70;;;;;;4934895;29;20465;-73
2023/05/14 12:02:54;;;;;;;2.30;0.68;;;20.80;96.70;;;;;;4961157;28;20050;-74
2023/05/14 12:05:23;;;;;;;0.82;0.40;;;20.60;96.70;;;;;;4945900;28;21259;-74
2023/05/14 12:07:52;;;;;;;1.90;0.38;;;20.30;96.70;;;;;;4932121;28;20078;-74
2023/05/14 12:10:21;;;;;;;2.15;0.43;;;20.20;96.70;;;;;;4967875;28;20055;-76
2023/05/14 12:12:50;;;;;;;1.88;0.77;;;20.00;96.70;;;;;;4960151;28;20050;-75
2023/05/14 12:15:20;;;;;;;2.08;0.55;;;19.90;96.70;;;;;;4952897;28;20449;-74
2023/05/14 12:17:53;;;;;;;0.98;0.70;;;19.60;96.70;;;;;;4945136;28;20058;-73
2023/05/14 12:20:25;;;;;;;1.65;0.60;;;19.70;96.70;;;;;;4956091;28;20496;-74
2023/05/14 12:22:54;;;;;;;2.08;0.50;;;19.60;96.70;;;;;;4962394;28;20134;-73
2023/05/14 12:25:25;;;;;;;3.40;0.88;;;19.50;96.70;;;;;;4962522;28;20129;-74
2023/05/14 12:27:54;;;;;;;0.73;0.65;;;19.50;96.70;;;;;;4960962;28;20043;-73
2023/05/14 12:30:22;;;;;;;1.20;0.60;;;19.50;96.70;;;;;;4964602;28;20154;-73
2023/05/14 12:32:52;;;;;;;2.25;0.47;;;19.50;96.70;;;;;;4980288;28;20061;-74
2023/05/14 12:35:22;;;;;;;0.77;0.50;;;19.40;96.70;;;;;;4976047;28;20047;-73
2023/05/14 12:37:51;;;;;;;2.65;0.60;;;19.40;96.70;;;;;;4971079;28;20290;-74
2023/05/14 12:40:20;;;;;;;1.70;0.60;;;19.40;96.70;;;;;;4963309;28;20070;-76
2023/05/14 12:42:49;;;;;;;2.00;0.60;;;19.50;96.70;;;;;;4933021;28;20074;-75
2023/05/14 12:45:18;;;;;;;0.50;0.40;;;19.70;96.70;;;;;;4976517;28;20039;-74
2023/05/14 12:47:47;;;;;;;1.05;0.50;;;19.50;96.70;;;;;;4972419;28;20042;-74
2023/05/14 12:50:15;;;;;;;1.40;0.80;;;19.50;96.70;;;;;;4956872;28;20035;-75
2023/05/14 12:52:46;;;;;;;2.08;0.60;;;19.60;96.70;;;;;;4963466;28;20575;-74
2023/05/14 12:55:15;;;;;;;1.38;0.70;;;19.60;96.70;;;;;;4965478;28;20473;-74
2023/05/14 12:57:44;;;;;;;1.20;0.40;;;19.50;96.70;;;;;;4965566;28;20097;-73
2023/05/14 13:00:14;;;;;;;0.63;0.40;;;19.50;96.70;;;;;;4956246;28;20100;-74
2023/05/14 13:02:42;;;;;;;0.40;0.20;;;19.40;96.70;;;;;;4957667;28;20136;-73
2023/05/14 13:05:11;;;;;;;2.10;0.63;;;19.40;96.70;;;;;;4945918;28;20051;-73
2023/05/14 13:07:40;;;;;;;1.70;0.90;;;19.30;96.70;;;;;;4954685;28;20578;-74
2023/05/14 13:10:10;;;;;;;1.70;0.57;;;19.30;96.70;;;;;;4970256;28;20602;-74
2023/05/14 13:12:39;;;;;;;3.70;0.38;;;19.30;96.70;;;;;;4964121;28;20050;-73
2023/05/14 13:15:08;;;;;;;0.55;0.40;;;19.30;96.70;;;;;;4970187;28;20038;-74
2023/05/14 13:17:37;;;;;;;1.17;0.50;;;19.30;96.70;;;;;;4963330;28;20070;-74
2023/05/14 13:20:07;;;;;;;1.38;0.50;;;19.30;96.70;;;;;;4954383;28;20039;-74
2023/05/14 13:22:35;;;;;;;1.33;0.50;;;19.30;96.70;;;;;;4954021;28;20524;-74
2023/05/14 13:25:04;;;;;;;1.27;0.50;;;19.30;96.70;;;;;;4935190;29;20055;-75
2023/05/14 13:27:37;;;;;;;0.63;0.50;;;19.30;96.70;;;;;;4974734;28;20389;-74
2023/05/14 13:30:07;;;;;;;2.10;0.40;;;19.30;96.70;;;;;;4958669;28;20142;-74
2023/05/14 13:32:35;;;;;;;0.57;0.45;;;19.30;96.70;;;;;;4963021;28;20042;-74
2023/05/14 13:35:04;;;;;;;1.25;0.40;;;19.20;96.70;;;;;;4980977;28;20078;-75
2023/05/14 13:37:32;;;;;;;2.05;0.43;;;19.20;96.70;;;;;;4980809;28;20043;-76
2023/05/14 13:40:00;;;;;;;0.80;0.50;;;19.30;96.70;;;;;;4972751;28;20133;-73
2023/05/14 13:42:29;;;;;;;1.42;0.40;;;19.30;96.70;;;;;;4973995;28;20039;-74
2023/05/14 13:44:59;;;;;;;1.70;0.40;;;19.30;96.70;;;;;;4945691;28;20512;-73
2023/05/14 13:47:27;;;;;;;1.00;0.57;;;19.30;96.70;;;;;;4963128;28;20049;-73
2023/05/14 13:49:56;;;;;;;0.82;0.35;;;19.40;96.70;;;;;;4942189;28;20515;-73
2023/05/14 13:52:25;;;;;;;2.47;0.55;;;19.50;96.70;;;;;;4972509;28;20050;-73
2023/05/14 13:54:53;;;;;;;1.50;0.40;;;19.50;96.70;;;;;;4953475;28;20133;-74
2023/05/14 13:57:22;;;;;;;3.50;0.57;;;19.60;96.70;;;;;;4958665;28;20057;-74
2023/05/14 13:59:50;;;;;;;0.90;0.60;;;19.70;96.70;;;;;;4967503;28;20065;-74
2023/05/14 14:02:20;;;;;;;1.52;0.40;;;19.90;96.70;;;;;;4978144;28;20057;-74
2023/05/14 14:04:48;;;;;;;1.38;0.40;;;20.00;96.70;;;;;;4967117;28;20157;-74
2023/05/14 14:07:16;;;;;;;0.85;0.47;;;20.20;96.70;;;;;;4982613;28;20074;-75
2023/05/14 14:09:45;;;;;;;1.27;0.43;;;20.30;96.70;;;;;;4967867;28;20038;-75
2023/05/14 14:12:13;;;;;;;0.65;0.40;;;20.40;96.70;;;;;;4951625;28;20623;-74